aviador You're here:

PANW Decoded Metar

NEW STUYAHOK in AK, USA
Report Time2017-10-23 04:56:00
UTC Time2017-10-23 05:54:53
Flight Rules lifr LIFR
Wind170° at 10 Gusting to 18 kt
W.Decomp.*RWY 14: 9.7 kt HW 2.4 kt RCW
W.Rank170° ranks 15
Current wind is above 170° avg. (7.6)
Visibility9999 m
Phenomena:N/A
Clouds:Overcast 004 Hf
Expected CloudBase > 400 ft AGL from Temp-Dew spread
Ceiling400 ft
Temp-2°C (ISA -16)
Dew Point-3°C (93% RH)
AAT-8.0°C
QNH1002 hPa
Density Alt-1,263 ft
Elevation302 ft
Report Wrong Elevation
Raw Report
PANW 230456Z AUTO 17010G18KT 10SM OVC004 M02/M03 A2959 RMK AO2
SLP036 T10221028 FZRANO=

Extra information for PANW:More info

Metar Taf Metar & Taf Last 4 Metars F.Rules Stats Wind Profile Meteogram Temp Stats Airport Information Weather charts Add Link Nearby VenuesMetar ALERT Operation Metar Decoded Social comments

AIRNAV info for PANW